createdAt,value
2023-03-02T00:00:39.920Z,5.90
2023-03-02T00:01:39.878Z,6.40
2023-03-02T00:02:39.967Z,6.10
2023-03-02T00:03:39.945Z,5.70
2023-03-02T00:04:39.789Z,6.20
2023-03-02T00:05:39.752Z,6.00
2023-03-02T00:06:39.719Z,6.10
2023-03-02T00:07:39.696Z,6.00
2023-03-02T00:08:39.658Z,6.10
2023-03-02T00:09:39.634Z,6.10
2023-03-02T00:10:39.606Z,6.80
2023-03-02T00:11:39.572Z,6.40
2023-03-02T00:12:39.533Z,6.40
2023-03-02T00:13:39.513Z,6.00
2023-03-02T00:14:39.476Z,6.50
2023-03-02T00:15:39.566Z,6.20
2023-03-02T00:16:39.413Z,6.00
2023-03-02T00:17:39.379Z,6.00
2023-03-02T00:18:39.345Z,6.20
2023-03-02T00:19:39.330Z,5.70
2023-03-02T00:20:39.290Z,5.90
2023-03-02T00:21:39.255Z,6.30
2023-03-02T00:22:39.218Z,5.70
2023-03-02T00:23:39.184Z,5.90
2023-03-02T00:24:39.159Z,6.20
2023-03-02T00:25:39.129Z,6.10
2023-03-02T00:26:39.105Z,6.10
2023-03-02T00:27:39.064Z,6.50
2023-03-02T00:28:39.033Z,6.70
2023-03-02T00:29:39.003Z,5.90
2023-03-02T00:30:38.968Z,6.00
2023-03-02T00:31:39.031Z,5.60
2023-03-02T00:32:38.902Z,6.10
2023-03-02T00:33:38.873Z,5.70
2023-03-02T00:34:38.838Z,6.00
2023-03-02T00:35:38.946Z,6.80
2023-03-02T00:36:38.822Z,7.10
2023-03-02T00:37:38.750Z,6.40
2023-03-02T00:38:38.718Z,6.20
2023-03-02T00:39:38.690Z,6.40
2023-03-02T00:40:38.648Z,6.60
2023-03-02T00:41:38.618Z,6.40
2023-03-02T00:42:38.586Z,6.20
2023-03-02T00:43:38.582Z,6.80
2023-03-02T00:44:38.523Z,7.00
2023-03-02T00:45:38.494Z,6.70
2023-03-02T00:46:38.534Z,7.40
2023-03-02T00:47:38.445Z,7.40
2023-03-02T00:48:38.395Z,7.70
2023-03-02T00:49:38.366Z,7.40
2023-03-02T00:50:38.336Z,7.70
2023-03-02T00:51:38.304Z,7.60
2023-03-02T00:52:38.272Z,8.10
2023-03-02T00:53:38.241Z,7.40
2023-03-02T00:54:38.215Z,7.60
2023-03-02T00:55:38.199Z,7.90
2023-03-02T00:56:38.151Z,7.60
2023-03-02T00:57:38.116Z,7.40
2023-03-02T00:58:38.088Z,7.70
2023-03-02T00:59:38.053Z,8.10
2023-03-02T01:00:38.020Z,7.80
2023-03-02T01:01:37.991Z,8.50
2023-03-02T01:02:38.097Z,8.20
2023-03-02T01:03:37.960Z,7.80
2023-03-02T01:04:37.897Z,8.00
2023-03-02T01:05:37.907Z,8.90
2023-03-02T01:06:37.840Z,8.60
2023-03-02T01:07:37.805Z,8.70
2023-03-02T01:08:37.771Z,9.00
2023-03-02T01:09:37.754Z,8.70
2023-03-02T01:10:37.719Z,9.30
2023-03-02T01:11:37.682Z,8.50
2023-03-02T01:12:37.652Z,9.20
2023-03-02T01:13:37.619Z,8.90
2023-03-02T01:14:37.583Z,8.70
2023-03-02T01:15:37.555Z,8.80
2023-03-02T01:16:37.666Z,9.10
2023-03-02T01:17:37.495Z,9.70
2023-03-02T01:18:37.462Z,8.70
2023-03-02T01:19:37.454Z,9.80
2023-03-02T01:20:37.399Z,9.70
2023-03-02T01:21:37.368Z,9.20
2023-03-02T01:22:37.335Z,9.30
2023-03-02T01:23:37.305Z,9.60
2023-03-02T01:24:37.276Z,9.50
2023-03-02T01:25:37.245Z,9.70
2023-03-02T01:26:37.218Z,9.20
2023-03-02T01:27:37.182Z,9.70
2023-03-02T01:28:37.151Z,10.40
2023-03-02T01:29:37.125Z,10.40
2023-03-02T01:30:37.084Z,9.90
2023-03-02T01:31:37.127Z,10.70
2023-03-02T01:32:37.123Z,9.80
2023-03-02T01:33:36.993Z,9.90
2023-03-02T01:34:36.962Z,10.00
2023-03-02T01:35:37.011Z,9.40
2023-03-02T01:36:36.899Z,9.70
2023-03-02T01:37:36.869Z,10.00
2023-03-02T01:38:36.950Z,10.10
2023-03-02T01:39:36.809Z,9.30
2023-03-02T01:40:36.774Z,10.40
2023-03-02T01:41:36.741Z,10.10
2023-03-02T01:42:36.707Z,10.10
2023-03-02T01:43:36.680Z,10.20
2023-03-02T01:44:36.645Z,9.50
2023-03-02T01:45:36.663Z,10.30
2023-03-02T01:46:36.581Z,10.30
2023-03-02T01:47:36.552Z,9.70
2023-03-02T01:48:36.525Z,9.80
2023-03-02T01:49:36.489Z,10.60
2023-03-02T01:50:36.458Z,9.90
2023-03-02T01:51:36.444Z,10.70
2023-03-02T01:52:36.398Z,11.00
2023-03-02T01:53:36.369Z,10.60
2023-03-02T01:54:36.332Z,11.20
2023-03-02T01:55:36.302Z,10.60
2023-03-02T01:56:36.268Z,11.20
2023-03-02T01:57:36.240Z,11.60
2023-03-02T01:58:36.206Z,10.90
2023-03-02T01:59:36.179Z,11.30
2023-03-02T02:00:36.142Z,11.10
2023-03-02T02:01:36.117Z,12.40
2023-03-02T02:02:36.082Z,12.00
2023-03-02T02:03:36.070Z,11.70
2023-03-02T02:04:36.017Z,12.20
2023-03-02T02:05:35.989Z,12.60
2023-03-02T02:06:35.969Z,12.60
2023-03-02T02:07:35.944Z,12.90
2023-03-02T02:08:35.892Z,12.80
2023-03-02T02:09:35.862Z,12.80
2023-03-02T02:10:35.829Z,13.60
2023-03-02T02:11:35.798Z,12.80
2023-03-02T02:12:35.764Z,13.50
2023-03-02T02:13:35.733Z,14.30
2023-03-02T02:14:35.701Z,13.00
2023-03-02T02:15:35.677Z,13.20
2023-03-02T02:16:36.019Z,13.50
2023-03-02T02:17:35.618Z,14.40
2023-03-02T02:18:35.578Z,14.30
2023-03-02T02:19:35.541Z,13.80
2023-03-02T02:20:35.510Z,13.90
2023-03-02T02:21:35.479Z,14.30
2023-03-02T02:22:35.450Z,13.90
2023-03-02T02:23:35.561Z,15.00
2023-03-02T02:24:35.383Z,14.60
2023-03-02T02:25:35.353Z,15.10
2023-03-02T02:26:35.664Z,14.80
2023-03-02T02:27:35.287Z,15.60
2023-03-02T02:28:35.254Z,15.10
2023-03-02T02:29:35.229Z,15.80
2023-03-02T02:30:35.192Z,14.40
2023-03-02T02:31:35.235Z,15.70
2023-03-02T02:32:35.202Z,15.90
2023-03-02T02:33:35.097Z,16.40
2023-03-02T02:34:35.076Z,17.80
2023-03-02T02:35:35.075Z,17.00
2023-03-02T02:36:35.060Z,16.50
2023-03-02T02:37:34.969Z,17.40
2023-03-02T02:38:34.939Z,17.60
2023-03-02T02:39:34.926Z,17.40
2023-03-02T02:40:34.875Z,17.70
2023-03-02T02:41:34.846Z,18.00
2023-03-02T02:42:34.807Z,18.50
2023-03-02T02:43:34.799Z,17.70
2023-03-02T02:44:34.753Z,17.50
2023-03-02T02:45:34.773Z,18.00
2023-03-02T02:46:35.020Z,19.20
2023-03-02T02:47:34.659Z,18.60
2023-03-02T02:48:34.617Z,18.00
2023-03-02T02:49:34.599Z,18.50
2023-03-02T02:50:34.550Z,18.40
2023-03-02T02:51:34.525Z,18.60
2023-03-02T02:52:34.490Z,19.30
2023-03-02T02:53:34.458Z,18.30
2023-03-02T02:54:34.434Z,19.10
2023-03-02T02:55:34.416Z,19.20
2023-03-02T02:56:34.824Z,19.50
2023-03-02T02:57:34.329Z,20.00
2023-03-02T02:58:34.298Z,19.60
2023-03-02T02:59:34.268Z,19.20
2023-03-02T03:00:34.232Z,19.30
2023-03-02T03:01:34.243Z,19.20
2023-03-02T03:02:34.169Z,19.70
2023-03-02T03:03:34.135Z,19.90
2023-03-02T03:04:34.140Z,19.60
2023-03-02T03:05:34.077Z,20.70
2023-03-02T03:06:34.254Z,19.30
2023-03-02T03:07:34.011Z,20.70
2023-03-02T03:08:33.973Z,20.90
2023-03-02T03:09:33.991Z,20.50
2023-03-02T03:10:33.908Z,20.40
2023-03-02T03:11:33.925Z,20.70
2023-03-02T03:12:33.848Z,21.20
2023-03-02T03:13:33.815Z,20.40
2023-03-02T03:14:33.794Z,21.20
2023-03-02T03:15:33.755Z,21.60
2023-03-02T03:16:34.199Z,21.20
2023-03-02T03:17:33.687Z,22.50
2023-03-02T03:18:33.651Z,20.70
2023-03-02T03:19:33.628Z,22.10
2023-03-02T03:20:33.585Z,21.60
2023-03-02T03:21:33.555Z,21.70
2023-03-02T03:22:33.518Z,20.90
2023-03-02T03:23:33.489Z,21.50
2023-03-02T03:24:33.455Z,22.80
2023-03-02T03:25:33.423Z,23.40
2023-03-02T03:26:33.754Z,24.00
2023-03-02T03:27:33.434Z,22.40
2023-03-02T03:28:33.325Z,22.60
2023-03-02T03:29:33.296Z,23.00
2023-03-02T03:30:33.304Z,21.90
2023-03-02T03:31:33.253Z,24.20
2023-03-02T03:32:33.227Z,23.50
2023-03-02T03:33:33.167Z,23.80
2023-03-02T03:34:33.130Z,23.80
2023-03-02T03:35:33.138Z,22.00
2023-03-02T03:36:33.504Z,23.80
2023-03-02T03:37:33.034Z,23.30
2023-03-02T03:38:33.002Z,22.90
2023-03-02T03:39:32.968Z,23.20
2023-03-02T03:40:32.936Z,23.70
2023-03-02T03:41:32.905Z,24.00
2023-03-02T03:42:32.871Z,22.10
2023-03-02T03:43:32.856Z,23.40
2023-03-02T03:44:32.802Z,23.30
2023-03-02T03:45:32.776Z,24.40
2023-03-02T03:46:33.267Z,23.70
2023-03-02T03:47:32.711Z,24.60
2023-03-02T03:48:32.675Z,24.70
2023-03-02T03:49:32.647Z,24.40
2023-03-02T03:50:32.610Z,22.80
2023-03-02T03:51:32.578Z,23.50
2023-03-02T03:52:32.543Z,22.70
2023-03-02T03:53:32.510Z,24.50
2023-03-02T03:54:32.475Z,24.20
2023-03-02T03:55:32.452Z,23.70
2023-03-02T03:56:32.685Z,24.80
2023-03-02T03:57:32.378Z,22.90
2023-03-02T03:58:32.416Z,24.60
2023-03-02T03:59:32.336Z,24.30
2023-03-02T04:00:32.283Z,23.50
2023-03-02T04:01:32.426Z,23.90
2023-03-02T04:02:32.319Z,23.40
2023-03-02T04:03:32.186Z,24.50
2023-03-02T04:04:32.151Z,22.30
2023-03-02T04:05:32.119Z,22.30
2023-03-02T04:06:32.478Z,22.30
2023-03-02T04:07:32.051Z,23.50
2023-03-02T04:08:32.019Z,22.70
2023-03-02T04:09:31.990Z,23.50
2023-03-02T04:10:31.955Z,22.50
2023-03-02T04:11:31.924Z,24.50
2023-03-02T04:12:31.888Z,22.50
2023-03-02T04:13:31.857Z,23.30
2023-03-02T04:14:31.823Z,23.40
2023-03-02T04:15:31.866Z,24.40
2023-03-02T04:16:32.115Z,22.90
2023-03-02T04:17:31.734Z,23.00
2023-03-02T04:18:31.693Z,22.40
2023-03-02T04:19:31.660Z,23.40
2023-03-02T04:20:31.626Z,22.20
2023-03-02T04:21:31.627Z,22.40
2023-03-02T04:22:31.561Z,23.00
2023-03-02T04:23:31.537Z,22.50
2023-03-02T04:24:31.499Z,22.50
2023-03-02T04:25:31.470Z,23.70
2023-03-02T04:26:31.817Z,22.60
2023-03-02T04:27:31.404Z,23.00
2023-03-02T04:28:31.373Z,22.40
2023-03-02T04:29:31.338Z,23.00
2023-03-02T04:30:31.309Z,22.30
2023-03-02T04:31:31.357Z,22.70
2023-03-02T04:32:31.343Z,22.00
2023-03-02T04:33:31.210Z,22.30
2023-03-02T04:34:31.183Z,21.40
2023-03-02T04:35:31.179Z,21.60
2023-03-02T04:36:32.843Z,22.30
2023-03-02T04:37:31.087Z,21.60
2023-03-02T04:38:31.052Z,21.80
2023-03-02T04:39:31.024Z,22.10
2023-03-02T04:40:30.997Z,22.50
2023-03-02T04:41:30.957Z,23.00
2023-03-02T04:42:30.927Z,20.90
2023-03-02T04:43:30.894Z,21.30
2023-03-02T04:44:30.873Z,21.30
2023-03-02T04:45:30.837Z,22.00
2023-03-02T04:46:31.121Z,22.10
2023-03-02T04:47:30.781Z,21.10
2023-03-02T04:48:30.731Z,21.90
2023-03-02T04:49:30.699Z,22.20
2023-03-02T04:50:30.673Z,20.40
2023-03-02T04:51:30.639Z,21.90
2023-03-02T04:52:30.610Z,21.80
2023-03-02T04:53:30.568Z,21.70
2023-03-02T04:54:30.541Z,21.40
2023-03-02T04:55:30.506Z,21.50
2023-03-02T04:56:30.926Z,21.40
2023-03-02T04:57:30.442Z,22.60
2023-03-02T04:58:30.412Z,21.90
2023-03-02T04:59:30.380Z,21.90
2023-03-02T05:00:32.124Z,21.50
2023-03-02T05:01:30.309Z,20.70
2023-03-02T05:02:30.320Z,21.10
2023-03-02T05:03:30.266Z,21.10
2023-03-02T05:04:30.288Z,21.30
2023-03-02T05:05:30.178Z,22.20
2023-03-02T05:06:30.577Z,21.60
2023-03-02T05:07:30.114Z,21.10
2023-03-02T05:08:30.171Z,20.70
2023-03-02T05:09:30.048Z,21.00
2023-03-02T05:10:30.026Z,21.10
2023-03-02T05:11:29.984Z,20.40
2023-03-02T05:12:29.953Z,21.40
2023-03-02T05:13:29.918Z,21.50
2023-03-02T05:14:29.892Z,20.10
2023-03-02T05:15:29.851Z,20.90
2023-03-02T05:16:29.905Z,21.30
2023-03-02T05:17:29.797Z,21.50
2023-03-02T05:18:29.756Z,21.10
2023-03-02T05:19:29.742Z,21.70
2023-03-02T05:20:29.702Z,21.50
2023-03-02T05:21:29.660Z,20.80
2023-03-02T05:22:29.625Z,21.00
2023-03-02T05:23:29.601Z,22.30
2023-03-02T05:24:29.568Z,20.70
2023-03-02T05:25:29.529Z,21.30
2023-03-02T05:26:29.493Z,21.20
2023-03-02T05:27:29.462Z,20.00
2023-03-02T05:28:29.435Z,21.50
2023-03-02T05:29:29.395Z,21.30
2023-03-02T05:30:29.368Z,21.50
2023-03-02T05:31:29.378Z,20.40
2023-03-02T05:32:29.340Z,20.70
2023-03-02T05:33:29.267Z,21.10
2023-03-02T05:34:29.234Z,21.00
2023-03-02T05:35:29.274Z,21.90
2023-03-02T05:36:29.172Z,21.00
2023-03-02T05:37:29.134Z,21.70
2023-03-02T05:38:29.100Z,21.80
2023-03-02T05:39:29.071Z,21.90
2023-03-02T05:40:29.040Z,20.90
2023-03-02T05:41:29.008Z,20.80
2023-03-02T05:42:28.974Z,22.00
2023-03-02T05:43:28.954Z,21.40
2023-03-02T05:44:28.906Z,21.70
2023-03-02T05:45:28.872Z,21.40
2023-03-02T05:46:28.896Z,21.80
2023-03-02T05:47:28.809Z,20.10
2023-03-02T05:48:28.779Z,21.20
2023-03-02T05:49:28.741Z,21.00
2023-03-02T05:50:28.712Z,21.80
2023-03-02T05:51:28.756Z,20.70
2023-03-02T05:52:28.645Z,21.60
2023-03-02T05:53:28.610Z,20.80
2023-03-02T05:54:28.581Z,21.00
2023-03-02T05:55:28.543Z,22.10
2023-03-02T05:56:28.519Z,22.20
2023-03-02T05:57:28.479Z,21.10
2023-03-02T05:58:28.449Z,21.90
2023-03-02T05:59:28.412Z,21.00
2023-03-02T06:00:28.381Z,21.70
2023-03-02T06:01:28.344Z,21.60
2023-03-02T06:02:28.318Z,22.60
2023-03-02T06:03:28.362Z,22.20
2023-03-02T06:04:28.246Z,21.50
2023-03-02T06:05:28.221Z,21.00
2023-03-02T06:06:28.185Z,21.50
2023-03-02T06:07:28.174Z,22.60
2023-03-02T06:08:28.118Z,21.70
2023-03-02T06:09:28.084Z,21.20
2023-03-02T06:10:28.050Z,22.10
2023-03-02T06:11:28.015Z,21.50
2023-03-02T06:12:27.988Z,22.00
2023-03-02T06:13:27.949Z,22.00
2023-03-02T06:14:27.916Z,22.20
2023-03-02T06:15:27.880Z,22.60
2023-03-02T06:16:27.895Z,22.30
2023-03-02T06:17:27.818Z,23.70
2023-03-02T06:18:27.786Z,23.00
2023-03-02T06:19:27.755Z,22.60
2023-03-02T06:20:27.727Z,22.00
2023-03-02T06:21:27.689Z,22.40
2023-03-02T06:22:27.656Z,23.50
2023-03-02T06:23:27.639Z,24.30
2023-03-02T06:24:27.587Z,22.80
2023-03-02T06:25:27.571Z,23.20
2023-03-02T06:26:27.517Z,23.70
2023-03-02T06:27:27.489Z,23.50
2023-03-02T06:28:27.457Z,23.90
2023-03-02T06:29:27.425Z,23.60
2023-03-02T06:30:27.387Z,24.80
2023-03-02T06:31:27.441Z,23.00
2023-03-02T06:32:27.391Z,23.80
2023-03-02T06:33:27.291Z,24.10
2023-03-02T06:34:27.259Z,24.70
2023-03-02T06:35:27.327Z,24.90
2023-03-02T06:36:27.259Z,24.60
2023-03-02T06:37:27.164Z,24.80
2023-03-02T06:38:27.127Z,25.60
2023-03-02T06:39:27.113Z,25.00
2023-03-02T06:40:27.062Z,25.40
2023-03-02T06:41:27.030Z,24.60
2023-03-02T06:42:27.005Z,25.50
2023-03-02T06:43:27.032Z,25.30
2023-03-02T06:44:26.929Z,24.30
2023-03-02T06:45:26.896Z,24.60
2023-03-02T06:46:26.863Z,25.60
2023-03-02T06:47:26.830Z,25.20
2023-03-02T06:48:26.795Z,24.60
2023-03-02T06:49:26.765Z,24.20
2023-03-02T06:50:26.729Z,25.10
2023-03-02T06:51:26.699Z,24.50
2023-03-02T06:52:26.668Z,24.30
2023-03-02T06:53:26.629Z,24.10
2023-03-02T06:54:26.599Z,24.90
2023-03-02T06:55:26.597Z,22.80
2023-03-02T06:56:26.535Z,23.60
2023-03-02T06:57:26.501Z,24.50
2023-03-02T06:58:26.467Z,26.40
2023-03-02T06:59:26.431Z,26.00
2023-03-02T07:00:26.456Z,24.70
2023-03-02T07:01:26.442Z,24.80
2023-03-02T07:02:26.398Z,24.90
2023-03-02T07:03:26.361Z,25.30
2023-03-02T07:04:26.283Z,23.90
2023-03-02T07:05:26.237Z,26.10
2023-03-02T07:06:26.201Z,24.60
2023-03-02T07:07:26.168Z,24.60
2023-03-02T07:08:26.152Z,24.00
2023-03-02T07:09:26.106Z,25.90
2023-03-02T07:10:26.066Z,25.90
2023-03-02T07:11:26.056Z,25.70
2023-03-02T07:12:26.007Z,25.50
2023-03-02T07:13:25.967Z,26.30
2023-03-02T07:14:25.953Z,24.90
2023-03-02T07:15:25.902Z,26.30
2023-03-02T07:16:25.895Z,26.00
2023-03-02T07:17:25.842Z,25.70
2023-03-02T07:18:25.806Z,26.40
2023-03-02T07:19:25.780Z,25.90
2023-03-02T07:20:25.739Z,25.10
2023-03-02T07:21:25.704Z,24.70
2023-03-02T07:22:25.671Z,25.20
2023-03-02T07:23:25.640Z,24.90
2023-03-02T07:24:25.607Z,25.20
2023-03-02T07:25:25.576Z,24.90
2023-03-02T07:26:25.537Z,24.70
2023-03-02T07:27:25.536Z,25.00
2023-03-02T07:28:25.473Z,25.40
2023-03-02T07:29:25.439Z,25.10
2023-03-02T07:30:25.408Z,24.90
2023-03-02T07:31:25.375Z,24.90
2023-03-02T07:32:25.375Z,24.70
2023-03-02T07:33:25.311Z,24.80
2023-03-02T07:34:25.285Z,24.30
2023-03-02T07:35:25.294Z,24.30
2023-03-02T07:36:25.212Z,24.20
2023-03-02T07:37:25.179Z,24.90
2023-03-02T07:38:25.148Z,23.40
2023-03-02T07:39:25.111Z,24.10
2023-03-02T07:40:25.097Z,23.30
2023-03-02T07:41:25.051Z,24.00
2023-03-02T07:42:25.018Z,24.10
2023-03-02T07:43:25.005Z,24.60
2023-03-02T07:44:24.953Z,23.80
2023-03-02T07:45:24.921Z,23.70
2023-03-02T07:46:24.967Z,24.00
2023-03-02T07:47:24.856Z,24.20
2023-03-02T07:48:24.827Z,24.00
2023-03-02T07:49:24.792Z,24.90
2023-03-02T07:50:24.760Z,23.40
2023-03-02T07:51:24.733Z,24.40
2023-03-02T07:52:24.749Z,24.50
2023-03-02T07:53:24.664Z,24.10
2023-03-02T07:54:24.632Z,24.30
2023-03-02T07:55:24.597Z,24.60
2023-03-02T07:56:24.584Z,24.20
2023-03-02T07:57:24.534Z,23.70
2023-03-02T07:58:24.509Z,25.30
2023-03-02T07:59:24.521Z,25.10
2023-03-02T08:00:24.437Z,24.60
2023-03-02T08:01:24.453Z,24.30
2023-03-02T08:02:24.397Z,24.20
2023-03-02T08:03:24.340Z,25.30
2023-03-02T08:04:24.324Z,23.70
2023-03-02T08:05:24.277Z,24.10
2023-03-02T08:06:24.244Z,24.90
2023-03-02T08:07:24.222Z,23.60
2023-03-02T08:08:24.179Z,23.20
2023-03-02T08:09:24.149Z,22.20
2023-03-02T08:10:24.135Z,22.60
2023-03-02T08:11:24.084Z,22.60
2023-03-02T08:12:24.053Z,22.50
2023-03-02T08:13:24.023Z,23.80
2023-03-02T08:14:23.993Z,22.40
2023-03-02T08:15:23.980Z,22.70
2023-03-02T08:16:24.043Z,22.30
2023-03-02T08:17:23.896Z,22.30
2023-03-02T08:18:23.862Z,23.10
2023-03-02T08:19:23.829Z,21.90
2023-03-02T08:20:23.804Z,22.30
2023-03-02T08:21:23.767Z,21.90
2023-03-02T08:22:23.736Z,22.10
2023-03-02T08:23:23.767Z,21.60
2023-03-02T08:24:23.672Z,21.60
2023-03-02T08:25:23.642Z,21.10
2023-03-02T08:26:23.614Z,21.90
2023-03-02T08:27:23.575Z,20.00
2023-03-02T08:28:23.546Z,21.60
2023-03-02T08:29:23.512Z,21.40
2023-03-02T08:30:23.487Z,20.70
2023-03-02T08:31:23.519Z,21.00
2023-03-02T08:32:23.518Z,20.30
2023-03-02T08:33:23.391Z,20.30
2023-03-02T08:34:23.375Z,20.90
2023-03-02T08:35:23.366Z,20.40
2023-03-02T08:36:23.294Z,21.20
2023-03-02T08:37:23.262Z,21.30
2023-03-02T08:38:23.232Z,20.20
2023-03-02T08:39:23.197Z,20.10
2023-03-02T08:40:23.166Z,20.20
2023-03-02T08:41:23.134Z,20.20
2023-03-02T08:42:23.107Z,20.90
2023-03-02T08:43:23.073Z,20.40
2023-03-02T08:44:23.043Z,20.60
2023-03-02T08:45:23.013Z,20.60
2023-03-02T08:46:22.979Z,20.70
2023-03-02T08:47:22.971Z,20.20
2023-03-02T08:48:22.918Z,19.40
2023-03-02T08:49:22.880Z,20.60
2023-03-02T08:50:22.851Z,19.90
2023-03-02T08:51:22.823Z,19.80
2023-03-02T08:52:22.786Z,19.40
2023-03-02T08:53:22.754Z,19.70
2023-03-02T08:54:22.720Z,19.40
2023-03-02T08:55:22.836Z,20.30
2023-03-02T08:56:22.664Z,19.00
2023-03-02T08:57:22.633Z,18.60
2023-03-02T08:58:22.594Z,19.90
2023-03-02T08:59:22.568Z,19.30
2023-03-02T09:00:22.532Z,19.00
2023-03-02T09:01:22.703Z,19.60
2023-03-02T09:02:22.476Z,18.70
2023-03-02T09:03:22.470Z,18.60
2023-03-02T09:04:22.557Z,18.30
2023-03-02T09:05:22.388Z,18.90
2023-03-02T09:06:22.340Z,19.10
2023-03-02T09:07:22.316Z,17.90
2023-03-02T09:08:22.291Z,17.60
2023-03-02T09:09:22.249Z,17.80
2023-03-02T09:10:22.218Z,17.10
2023-03-02T09:11:22.186Z,17.50
2023-03-02T09:12:22.161Z,17.50
2023-03-02T09:13:22.137Z,17.00
2023-03-02T09:14:22.150Z,16.70
2023-03-02T09:15:22.063Z,18.70
2023-03-02T09:16:22.094Z,16.00
2023-03-02T09:17:22.003Z,17.20
2023-03-02T09:18:21.971Z,16.70
2023-03-02T09:19:21.995Z,16.30
2023-03-02T09:20:21.905Z,16.80
2023-03-02T09:21:21.885Z,15.10
2023-03-02T09:22:21.848Z,15.20
2023-03-02T09:23:21.829Z,15.40
2023-03-02T09:24:21.889Z,15.70
2023-03-02T09:25:21.794Z,15.40
2023-03-02T09:26:21.782Z,14.80
2023-03-02T09:27:21.724Z,15.40
2023-03-02T09:28:21.660Z,15.40
2023-03-02T09:29:21.641Z,15.90
2023-03-02T09:30:21.599Z,15.10
2023-03-02T09:31:21.616Z,15.00
2023-03-02T09:32:21.718Z,15.30
2023-03-02T09:33:21.559Z,15.00
2023-03-02T09:34:21.487Z,14.80
2023-03-02T09:35:21.469Z,14.20
2023-03-02T09:36:21.428Z,14.60
2023-03-02T09:37:21.403Z,14.40
2023-03-02T09:38:21.349Z,14.40
2023-03-02T09:39:21.324Z,14.10
2023-03-02T09:40:21.299Z,14.40
2023-03-02T09:41:21.334Z,14.50
2023-03-02T09:42:22.042Z,14.80
2023-03-02T09:43:21.199Z,13.90
2023-03-02T09:44:21.169Z,14.20
2023-03-02T09:45:21.147Z,13.80
2023-03-02T09:46:21.163Z,13.70
2023-03-02T09:47:34.625Z,13.90
2023-03-02T09:48:21.046Z,14.00
2023-03-02T09:49:21.013Z,13.30
2023-03-02T09:50:20.993Z,13.60
2023-03-02T09:51:20.977Z,12.90
2023-03-02T09:52:20.925Z,14.20
2023-03-02T09:53:20.894Z,13.50
2023-03-02T09:54:21.035Z,12.90
2023-03-02T09:55:20.826Z,13.00
2023-03-02T09:56:20.895Z,13.40
2023-03-02T09:57:20.771Z,13.60
2023-03-02T09:58:20.740Z,13.70
2023-03-02T09:59:20.709Z,13.00
2023-03-02T10:00:20.745Z,13.30
2023-03-02T10:01:20.642Z,14.50
2023-03-02T10:02:20.613Z,13.60
2023-03-02T10:03:20.618Z,13.30
2023-03-02T10:04:20.719Z,14.20
2023-03-02T10:05:20.527Z,12.40
2023-03-02T10:06:20.512Z,13.60
2023-03-02T10:07:20.480Z,13.30
2023-03-02T10:08:20.444Z,13.50
2023-03-02T10:09:20.403Z,12.90
2023-03-02T10:10:20.369Z,13.40
2023-03-02T10:11:20.362Z,12.80
2023-03-02T10:12:20.313Z,12.50
2023-03-02T10:13:20.287Z,12.40
2023-03-02T10:14:20.249Z,12.60
2023-03-02T10:15:20.218Z,12.50
2023-03-02T10:16:20.211Z,12.80
2023-03-02T10:17:20.166Z,12.10
2023-03-02T10:18:20.127Z,11.90
2023-03-02T10:19:20.144Z,12.80
2023-03-02T10:20:20.099Z,12.20
2023-03-02T10:21:20.042Z,12.70
2023-03-02T10:22:20.009Z,12.30
2023-03-02T10:23:20.018Z,12.20
2023-03-02T10:24:19.947Z,12.40
2023-03-02T10:25:19.923Z,12.70
2023-03-02T10:26:19.893Z,13.00
2023-03-02T10:27:19.892Z,12.40
2023-03-02T10:28:19.831Z,11.80
2023-03-02T10:29:19.806Z,11.80
2023-03-02T10:30:19.772Z,12.00
2023-03-02T10:31:19.806Z,11.70
2023-03-02T10:32:19.823Z,11.50
2023-03-02T10:33:19.700Z,11.80
2023-03-02T10:34:19.658Z,11.60
2023-03-02T10:35:19.642Z,11.60
2023-03-02T10:36:32.418Z,12.10
2023-03-02T10:37:19.607Z,11.90
2023-03-02T10:38:19.542Z,12.00
2023-03-02T10:39:19.537Z,11.50
2023-03-02T10:40:19.484Z,12.10
2023-03-02T10:41:19.460Z,11.00
2023-03-02T10:42:19.492Z,11.90
2023-03-02T10:43:19.402Z,11.30
2023-03-02T10:44:19.374Z,10.90
2023-03-02T10:45:19.348Z,11.10
2023-03-02T10:46:19.461Z,11.20
2023-03-02T10:47:20.293Z,11.30
2023-03-02T10:48:19.263Z,10.70
2023-03-02T10:49:20.978Z,11.50
2023-03-02T10:50:19.206Z,11.10
2023-03-02T10:51:19.179Z,11.20
2023-03-02T10:52:19.163Z,11.10
2023-03-02T10:53:19.126Z,11.20
2023-03-02T10:54:19.099Z,11.60
2023-03-02T10:55:19.095Z,11.10
2023-03-02T10:56:19.040Z,11.20
2023-03-02T10:57:19.014Z,11.30
2023-03-02T10:58:19.000Z,11.50
2023-03-02T10:59:18.959Z,10.60
2023-03-02T11:00:18.935Z,11.20
2023-03-02T11:01:19.001Z,11.20
2023-03-02T11:02:18.883Z,12.20
2023-03-02T11:03:18.852Z,12.20
2023-03-02T11:04:18.873Z,12.00
2023-03-02T11:05:18.801Z,11.60
2023-03-02T11:06:18.771Z,11.30
2023-03-02T11:07:18.750Z,11.70
2023-03-02T11:08:18.725Z,11.20
2023-03-02T11:09:18.695Z,11.90
2023-03-02T11:10:18.674Z,11.30
2023-03-02T11:11:18.704Z,11.50
2023-03-02T11:12:18.613Z,10.90
2023-03-02T11:13:18.597Z,11.40
2023-03-02T11:14:18.560Z,11.70
2023-03-02T11:15:18.534Z,11.60
2023-03-02T11:16:18.659Z,12.20
2023-03-02T11:17:18.479Z,11.00
2023-03-02T11:18:18.450Z,11.90
2023-03-02T11:19:18.431Z,11.90
2023-03-02T11:20:18.398Z,11.60
2023-03-02T11:21:18.373Z,11.70
2023-03-02T11:22:18.357Z,11.90
2023-03-02T11:23:18.320Z,11.60
2023-03-02T11:24:18.333Z,11.80
2023-03-02T11:25:18.306Z,11.90
2023-03-02T11:26:18.239Z,12.30
2023-03-02T11:27:18.230Z,11.50
2023-03-02T11:28:18.186Z,12.00
2023-03-02T11:29:18.158Z,11.60
2023-03-02T11:30:18.128Z,11.90
2023-03-02T11:31:18.137Z,11.90
2023-03-02T11:32:18.143Z,12.00
2023-03-02T11:33:18.110Z,11.40
2023-03-02T11:34:18.729Z,11.90
2023-03-02T11:35:18.043Z,12.40
2023-03-02T11:36:17.967Z,11.50
2023-03-02T11:37:17.952Z,11.90
2023-03-02T11:38:17.920Z,11.60
2023-03-02T11:39:17.888Z,10.80
2023-03-02T11:40:17.854Z,11.50
2023-03-02T11:41:17.826Z,11.80
2023-03-02T11:42:17.854Z,12.30
2023-03-02T11:43:17.810Z,11.20
2023-03-02T11:44:17.752Z,12.00
2023-03-02T11:45:17.726Z,12.10
2023-03-02T11:46:22.222Z,12.60
2023-03-02T11:47:17.741Z,12.60
2023-03-02T11:48:17.628Z,11.00
2023-03-02T11:49:17.647Z,11.20
2023-03-02T11:50:17.653Z,10.50
2023-03-02T11:51:17.554Z,11.20
2023-03-02T11:52:17.522Z,11.30
2023-03-02T11:53:17.542Z,12.10
2023-03-02T11:54:17.463Z,11.60
2023-03-02T11:55:17.437Z,11.20
2023-03-02T11:56:17.415Z,10.70
2023-03-02T11:57:17.396Z,11.40
2023-03-02T11:58:17.353Z,11.90
2023-03-02T11:59:17.350Z,11.80
2023-03-02T12:00:17.296Z,12.30
2023-03-02T12:01:17.274Z,12.90
2023-03-02T12:02:17.326Z,12.70
2023-03-02T12:03:17.215Z,12.90
2023-03-02T12:04:17.180Z,13.10
2023-03-02T12:05:17.171Z,12.60
2023-03-02T12:06:17.126Z,11.70
2023-03-02T12:07:17.098Z,12.30
2023-03-02T12:08:17.067Z,12.20
2023-03-02T12:09:17.107Z,12.50
2023-03-02T12:10:17.017Z,12.30
2023-03-02T12:11:17.039Z,12.20
2023-03-02T12:12:16.952Z,11.90
2023-03-02T12:13:16.931Z,12.10
2023-03-02T12:14:16.898Z,11.90
2023-03-02T12:15:16.895Z,12.80
2023-03-02T12:16:16.858Z,12.50
2023-03-02T12:17:17.412Z,12.30
2023-03-02T12:18:16.785Z,13.10
2023-03-02T12:19:16.760Z,12.90
2023-03-02T12:20:16.727Z,12.20
2023-03-02T12:21:16.701Z,13.20
2023-03-02T12:22:16.670Z,13.10
2023-03-02T12:23:16.643Z,12.40
2023-03-02T12:24:16.615Z,12.60
2023-03-02T12:25:16.590Z,13.30
2023-03-02T12:26:16.557Z,13.30
2023-03-02T12:27:16.539Z,13.10
2023-03-02T12:28:16.593Z,11.90
2023-03-02T12:29:16.530Z,12.70
2023-03-02T12:30:16.495Z,11.90
2023-03-02T12:31:16.500Z,11.90
2023-03-02T12:32:16.407Z,11.90
2023-03-02T12:33:16.453Z,12.60
2023-03-02T12:34:16.346Z,12.50
2023-03-02T12:35:16.304Z,12.40
2023-03-02T12:36:16.269Z,12.20
2023-03-02T12:37:16.270Z,12.50
2023-03-02T12:38:16.273Z,12.60
2023-03-02T12:39:16.196Z,12.70
2023-03-02T12:40:16.157Z,11.60
2023-03-02T12:41:16.129Z,12.40
2023-03-02T12:42:16.100Z,12.50
2023-03-02T12:43:16.176Z,11.20
2023-03-02T12:44:16.128Z,11.30
2023-03-02T12:45:16.076Z,11.90
2023-03-02T12:46:16.034Z,12.60
2023-03-02T12:47:16.284Z,12.30
2023-03-02T12:48:15.925Z,12.70
2023-03-02T12:49:15.904Z,12.00
2023-03-02T12:50:15.866Z,11.60
2023-03-02T12:51:15.925Z,12.00
2023-03-02T12:52:15.964Z,11.60
2023-03-02T12:53:15.783Z,10.90
2023-03-02T12:54:15.756Z,10.70
2023-03-02T12:55:15.725Z,10.80